Time;durP1;ratioP1;P1;durP2;ratioP2;P2;SDS_P1;SDS_P2;PMS_P1;PMS_P2;Temp;Humidity;BMP_temperature;BMP_pressure;BME280_temperature;BME280_humidity;BME280_pressure;Samples;Min_cycle;Max_cycle;Signal;HPM_P1;HPM_P2
2022/08/13 00:01:40;;;;;;;6.00;3.05;;;18.90;99.90;;;;;;5073459;28;20056;-87
2022/08/13 00:04:13;;;;;;;6.72;2.60;;;18.80;99.90;;;;;;5039058;28;20573;-87
2022/08/13 00:09:10;;;;;;;4.05;2.40;;;18.80;99.90;;;;;;5055479;28;20056;-87
2022/08/13 00:14:27;;;;;;;6.82;2.63;;;18.70;99.90;;;;;;5055985;28;20052;-86
2022/08/13 00:16:56;;;;;;;4.57;2.63;;;18.60;99.90;;;;;;5055404;28;20045;-86
2022/08/13 00:19:30;;;;;;;4.60;2.60;;;18.60;99.90;;;;;;5055256;28;20561;-86
2022/08/13 00:21:57;;;;;;;17.48;2.83;;;18.60;99.90;;;;;;5055703;28;20041;-86
2022/08/13 00:24:24;;;;;;;6.75;2.85;;;18.50;99.90;;;;;;5055540;28;20033;-86
2022/08/13 00:26:50;;;;;;;6.43;3.00;;;18.50;99.90;;;;;;5072979;28;20048;-86
2022/08/13 00:29:16;;;;;;;6.43;2.50;;;18.50;99.90;;;;;;5055505;28;20477;-86
2022/08/13 00:31:44;;;;;;;6.90;2.40;;;18.40;99.90;;;;;;5055419;28;20056;-86
2022/08/13 00:34:10;;;;;;;4.95;2.60;;;18.40;99.90;;;;;;5038658;28;20406;-87
2022/08/13 00:36:36;;;;;;;4.05;2.65;;;18.30;99.90;;;;;;5071920;28;20048;-86
2022/08/13 00:39:07;;;;;;;6.18;3.15;;;18.40;99.90;;;;;;5038346;28;20060;-86
2022/08/13 00:41:39;;;;;;;4.57;2.80;;;18.30;99.90;;;;;;5038312;28;20037;-87
2022/08/13 00:44:07;;;;;;;6.75;2.80;;;18.30;99.90;;;;;;5055042;28;20052;-87
2022/08/13 00:46:34;;;;;;;5.78;2.90;;;18.20;99.90;;;;;;5055120;28;20101;-87
2022/08/13 00:49:03;;;;;;;3.80;2.60;;;18.20;99.90;;;;;;5054940;28;20044;-90
2022/08/13 00:51:31;;;;;;;7.32;3.30;;;18.20;99.90;;;;;;5038356;28;20051;-87
2022/08/13 00:53:58;;;;;;;5.68;2.97;;;18.10;99.90;;;;;;5038272;28;20045;-87
2022/08/13 00:56:24;;;;;;;4.03;2.70;;;18.10;99.90;;;;;;5055146;28;20060;-87
2022/08/13 00:58:51;;;;;;;4.05;2.85;;;18.10;99.90;;;;;;5038235;28;20098;-87
2022/08/13 01:01:20;;;;;;;7.47;3.58;;;18.10;99.90;;;;;;5054284;28;20052;-87
2022/08/13 01:03:47;;;;;;;5.50;3.00;;;18.10;99.90;;;;;;5053893;28;20055;-87
2022/08/13 01:06:12;;;;;;;4.18;2.55;;;18.10;99.90;;;;;;5055099;28;20067;-86
2022/08/13 01:08:41;;;;;;;3.92;3.13;;;18.20;99.90;;;;;;5054391;28;20478;-86
2022/08/13 01:11:13;;;;;;;5.22;2.90;;;18.10;99.90;;;;;;5054770;28;20113;-87
2022/08/13 01:13:43;;;;;;;6.28;3.08;;;18.10;99.90;;;;;;5072926;28;20048;-89
2022/08/13 01:16:13;;;;;;;5.78;2.55;;;18.20;99.90;;;;;;5054616;28;20040;-87
2022/08/13 01:18:45;;;;;;;8.40;3.22;;;18.20;99.90;;;;;;5054589;28;20056;-87
2022/08/13 01:21:15;;;;;;;6.78;3.10;;;18.30;99.90;;;;;;5038036;28;20044;-87
2022/08/13 01:23:45;;;;;;;6.38;2.80;;;18.30;99.90;;;;;;5037980;28;20036;-86
2022/08/13 01:26:16;;;;;;;5.50;3.03;;;18.30;99.90;;;;;;5037870;28;20048;-87
2022/08/13 01:28:46;;;;;;;7.35;3.10;;;18.40;99.90;;;;;;5037922;28;20048;-88
2022/08/13 01:31:14;;;;;;;6.67;2.97;;;18.40;99.90;;;;;;5054491;28;20056;-87
2022/08/13 01:33:43;;;;;;;3.97;2.75;;;18.40;99.90;;;;;;5054746;28;20041;-86
2022/08/13 01:36:10;;;;;;;5.40;2.97;;;18.50;99.90;;;;;;5037639;28;20049;-86
2022/08/13 01:38:36;;;;;;;3.05;2.55;;;18.40;99.90;;;;;;5037989;28;20113;-87
2022/08/13 01:41:04;;;;;;;7.05;3.03;;;18.30;99.90;;;;;;5054290;28;20459;-87
2022/08/13 01:43:31;;;;;;;5.70;2.95;;;18.40;99.90;;;;;;5072045;28;20413;-87
2022/08/13 01:46:01;;;;;;;4.82;2.65;;;18.30;99.90;;;;;;5054543;28;20051;-87
2022/08/13 01:51:24;;;;;;;7.68;2.83;;;18.20;99.90;;;;;;5054411;28;20055;-86
2022/08/13 01:53:58;;;;;;;8.52;3.33;;;18.20;99.90;;;;;;5054328;28;20051;-87
2022/08/13 01:56:25;;;;;;;8.05;2.67;;;18.10;99.90;;;;;;5037901;28;20106;-87
2022/08/13 01:58:53;;;;;;;6.05;2.70;;;18.10;99.90;;;;;;5054490;28;20193;-87
2022/08/13 02:01:25;;;;;;;6.35;2.75;;;18.10;99.90;;;;;;5053943;28;20061;-87
2022/08/13 02:03:52;;;;;;;4.45;2.50;;;17.90;99.90;;;;;;5037734;28;20048;-87
2022/08/13 02:06:27;;;;;;;5.80;2.65;;;18.00;99.90;;;;;;5071896;28;20412;-86
2022/08/13 02:08:59;;;;;;;5.45;2.80;;;18.00;99.90;;;;;;5053689;28;20037;-89
2022/08/13 02:11:27;;;;;;;4.32;2.90;;;17.90;99.90;;;;;;5054327;28;20135;-87
2022/08/13 02:13:54;;;;;;;4.97;2.38;;;17.90;99.90;;;;;;5037681;28;20143;-86
2022/08/13 02:16:20;;;;;;;5.10;2.40;;;17.80;99.90;;;;;;5057971;28;20055;-87
2022/08/13 02:18:46;;;;;;;3.63;2.53;;;17.80;99.90;;;;;;5057861;28;20401;-87
2022/08/13 02:21:12;;;;;;;5.25;2.42;;;17.80;99.90;;;;;;5075282;28;20044;-87
2022/08/13 02:23:38;;;;;;;5.07;2.53;;;17.70;99.90;;;;;;5041029;28;20057;-86
2022/08/13 02:26:08;;;;;;;6.20;2.47;;;17.70;99.90;;;;;;5074528;28;20452;-87
2022/08/13 02:28:37;;;;;;;5.68;2.45;;;17.70;99.90;;;;;;5057735;28;20056;-88
2022/08/13 02:31:03;;;;;;;2.97;2.30;;;17.70;99.90;;;;;;5041034;28;20470;-87
2022/08/13 02:33:29;;;;;;;3.75;2.28;;;17.70;99.90;;;;;;5057755;28;20036;-87
2022/08/13 02:35:55;;;;;;;2.85;2.25;;;17.70;99.90;;;;;;5040851;28;20048;-87
2022/08/13 02:38:21;;;;;;;4.32;2.30;;;17.60;99.90;;;;;;5057503;28;20114;-87
2022/08/13 02:43:31;;;;;;;5.35;2.40;;;17.70;99.90;;;;;;5057397;28;20114;-87
2022/08/13 02:45:58;;;;;;;9.90;2.80;;;17.60;99.90;;;;;;5057479;28;20371;-87
2022/08/13 02:48:25;;;;;;;3.47;2.60;;;17.60;99.90;;;;;;5040653;28;20113;-87
2022/08/13 02:50:52;;;;;;;7.38;2.80;;;17.60;99.90;;;;;;5040528;28;20123;-87
2022/08/13 02:53:19;;;;;;;4.95;2.70;;;17.50;99.90;;;;;;5057382;28;20375;-87
2022/08/13 02:55:47;;;;;;;7.50;2.90;;;17.50;99.90;;;;;;5040611;28;20051;-87
2022/08/13 02:58:16;;;;;;;4.07;2.50;;;17.50;99.90;;;;;;5040467;28;20103;-87
2022/08/13 03:00:48;;;;;;;7.68;2.70;;;17.50;99.90;;;;;;5056739;28;20421;-88
2022/08/13 03:03:16;;;;;;;5.68;2.58;;;17.40;99.90;;;;;;5040047;28;20055;-88
2022/08/13 03:05:42;;;;;;;5.88;2.58;;;17.50;99.90;;;;;;5057121;28;20044;-87
2022/08/13 03:08:07;;;;;;;5.00;2.90;;;17.50;99.90;;;;;;5073778;28;20052;-88
2022/08/13 03:10:33;;;;;;;7.07;2.40;;;17.40;99.90;;;;;;5056960;28;20403;-88
2022/08/13 03:13:04;;;;;;;4.72;2.40;;;17.40;99.90;;;;;;5073556;28;20041;-88
2022/08/13 03:15:30;;;;;;;5.35;2.47;;;17.30;99.90;;;;;;5074436;28;20540;-89
2022/08/13 03:17:56;;;;;;;5.68;2.47;;;17.20;99.90;;;;;;5039553;28;20409;-88
2022/08/13 03:20:21;;;;;;;3.42;2.60;;;17.20;99.90;;;;;;5073573;28;20044;-87
2022/08/13 03:22:54;;;;;;;5.32;2.53;;;17.10;99.90;;;;;;5056785;28;20552;-87
2022/08/13 03:25:21;;;;;;;4.82;2.47;;;17.10;99.90;;;;;;5039733;28;20485;-87
2022/08/13 03:27:48;;;;;;;8.85;2.75;;;17.00;99.90;;;;;;5039442;28;20405;-90
2022/08/13 03:30:16;;;;;;;4.78;2.78;;;17.00;99.90;;;;;;5056618;28;20052;-87
2022/08/13 03:32:46;;;;;;;8.88;2.90;;;17.00;99.90;;;;;;5039527;28;20757;-87
2022/08/13 03:35:20;;;;;;;6.32;2.60;;;17.00;99.90;;;;;;5056661;28;20052;-87
2022/08/13 03:37:55;;;;;;;4.00;2.83;;;16.90;99.90;;;;;;5039515;28;20065;-87
2022/08/13 03:40:23;;;;;;;5.00;2.42;;;16.90;99.90;;;;;;5056320;28;20464;-87
2022/08/13 03:42:49;;;;;;;5.43;2.90;;;16.90;99.90;;;;;;5056319;28;20051;-87
2022/08/13 03:45:17;;;;;;;4.72;2.72;;;16.80;99.90;;;;;;5073726;28;20048;-86
2022/08/13 03:47:44;;;;;;;4.13;2.60;;;16.80;99.90;;;;;;5056327;28;20537;-86
2022/08/13 03:50:13;;;;;;;4.47;2.80;;;16.80;99.90;;;;;;5056351;28;20079;-86
2022/08/13 03:52:40;;;;;;;5.50;2.63;;;16.80;99.90;;;;;;5056387;28;20052;-87
2022/08/13 03:55:11;;;;;;;6.82;2.65;;;16.70;99.90;;;;;;5056169;28;20045;-87
2022/08/13 03:57:44;;;;;;;6.80;2.63;;;16.70;99.90;;;;;;5039290;28;20047;-86
2022/08/13 04:00:12;;;;;;;5.97;2.53;;;16.70;99.90;;;;;;5028727;28;20502;-86
2022/08/13 04:02:41;;;;;;;6.40;2.65;;;16.60;99.90;;;;;;5053592;28;20053;-87
2022/08/13 04:05:13;;;;;;;4.32;2.67;;;16.70;99.90;;;;;;5019448;28;20055;-86
2022/08/13 04:07:39;;;;;;;5.57;2.90;;;16.70;99.90;;;;;;5035649;28;20051;-86
2022/08/13 04:10:06;;;;;;;9.98;2.92;;;16.70;99.90;;;;;;5035677;28;20085;-87
2022/08/13 04:12:32;;;;;;;3.42;2.63;;;16.60;99.90;;;;;;5035669;28;20131;-87
2022/08/13 04:14:57;;;;;;;6.47;2.92;;;16.60;99.90;;;;;;5035641;28;20530;-86
2022/08/13 04:17:23;;;;;;;6.18;2.97;;;16.70;99.90;;;;;;5053645;28;20089;-87
2022/08/13 04:19:48;;;;;;;7.75;3.20;;;16.60;99.90;;;;;;5035812;28;20505;-86
2022/08/13 04:22:14;;;;;;;6.75;3.25;;;16.70;99.90;;;;;;5018912;28;20470;-87
2022/08/13 04:24:40;;;;;;;3.42;2.60;;;16.70;99.90;;;;;;5053197;28;20049;-86
2022/08/13 04:27:06;;;;;;;7.32;3.00;;;16.60;99.90;;;;;;5035507;28;20102;-87
2022/08/13 04:29:32;;;;;;;8.75;2.95;;;16.60;99.90;;;;;;5035177;28;20402;-86
2022/08/13 04:32:01;;;;;;;7.25;2.90;;;16.70;99.90;;;;;;5035346;28;20056;-86
2022/08/13 04:34:28;;;;;;;6.75;3.22;;;16.70;99.90;;;;;;5035528;28;20037;-87
2022/08/13 04:36:55;;;;;;;4.90;3.13;;;16.70;99.90;;;;;;5018884;28;20413;-85
2022/08/13 04:39:21;;;;;;;5.45;2.75;;;16.70;99.90;;;;;;5034477;28;20080;-87
2022/08/13 04:41:46;;;;;;;4.85;2.63;;;16.80;99.90;;;;;;5018472;28;20100;-85
2022/08/13 04:44:12;;;;;;;5.18;2.78;;;16.80;99.90;;;;;;5035051;28;20041;-86
2022/08/13 04:46:38;;;;;;;4.18;2.90;;;16.80;99.90;;;;;;5035232;28;20048;-86
2022/08/13 04:49:05;;;;;;;5.40;3.00;;;16.80;99.90;;;;;;5018610;28;20064;-86
2022/08/13 04:51:34;;;;;;;5.53;2.75;;;16.80;99.90;;;;;;5034934;28;20052;-88
2022/08/13 04:54:00;;;;;;;7.00;2.80;;;16.90;99.90;;;;;;5018212;28;20058;-86
2022/08/13 04:56:26;;;;;;;4.53;2.80;;;16.90;99.90;;;;;;5018717;28;20100;-85
2022/08/13 04:58:52;;;;;;;7.03;2.85;;;17.00;99.90;;;;;;5034703;28;20055;-87
2022/08/13 05:01:18;;;;;;;5.45;2.80;;;17.00;99.90;;;;;;5036288;28;20056;-89
2022/08/13 05:03:47;;;;;;;6.30;3.00;;;17.00;99.90;;;;;;5018212;28;20049;-86
2022/08/13 05:06:18;;;;;;;5.07;2.40;;;17.00;99.90;;;;;;5035021;28;20237;-86
2022/08/13 05:08:44;;;;;;;;;;;17.00;99.90;;;;;;5018839;28;20048;-86
2022/08/13 05:11:12;;;;;;;5.35;2.58;;;17.00;99.90;;;;;;5034733;28;19927;-86
2022/08/13 05:13:39;;;;;;;5.30;2.65;;;17.00;99.90;;;;;;5018257;28;20045;-85
2022/08/13 05:16:08;;;;;;;7.15;2.30;;;17.30;99.90;;;;;;5052549;28;20394;-86
2022/08/13 05:18:37;;;;;;;3.38;2.70;;;17.10;99.90;;;;;;5034752;28;20111;-87
2022/08/13 05:21:05;;;;;;;6.50;2.70;;;17.30;99.90;;;;;;5018235;28;20041;-86
2022/08/13 05:23:35;;;;;;;3.85;2.70;;;17.40;99.90;;;;;;5017909;28;20049;-86
2022/08/13 05:26:01;;;;;;;6.18;2.58;;;17.40;99.90;;;;;;5034486;28;20049;-86
2022/08/13 05:28:28;;;;;;;5.00;2.30;;;17.50;99.90;;;;;;5017498;28;20516;-86
2022/08/13 05:30:54;;;;;;;6.78;2.50;;;17.60;99.90;;;;;;5017668;28;20505;-85
2022/08/13 05:33:26;;;;;;;5.97;2.35;;;17.60;99.90;;;;;;5032833;28;20136;-86
2022/08/13 05:35:55;;;;;;;3.38;2.00;;;17.70;99.90;;;;;;5007554;28;20053;-86
2022/08/13 05:38:23;;;;;;;4.72;2.38;;;17.70;99.90;;;;;;5048229;28;20057;-88
2022/08/13 05:40:50;;;;;;;4.90;2.00;;;17.90;99.90;;;;;;5047698;28;20045;-84
2022/08/13 05:43:19;;;;;;;2.90;2.28;;;18.00;99.90;;;;;;5031369;28;20104;-86
2022/08/13 05:45:54;;;;;;;2.83;2.00;;;18.10;99.90;;;;;;5047848;28;20077;-87
2022/08/13 05:48:20;;;;;;;5.70;2.13;;;18.10;99.90;;;;;;5047842;28;20055;-85
2022/08/13 05:50:45;;;;;;;2.38;2.10;;;18.30;99.90;;;;;;5050932;28;20041;-86
2022/08/13 05:53:12;;;;;;;5.45;2.15;;;18.30;99.90;;;;;;5018673;28;20060;-87
2022/08/13 05:55:40;;;;;;;3.63;2.30;;;18.40;99.90;;;;;;5034759;28;20053;-85
2022/08/13 05:58:07;;;;;;;9.60;2.20;;;18.50;99.90;;;;;;5034974;28;20052;-88
2022/08/13 06:03:28;;;;;;;4.13;2.15;;;18.70;99.90;;;;;;5038258;28;20387;-88
2022/08/13 06:05:55;;;;;;;2.60;2.00;;;18.80;99.90;;;;;;5071412;28;20052;-87
2022/08/13 06:08:41;;;;;;;6.10;1.80;;;19.00;99.90;;;;;;5071456;28;20053;-87
2022/08/13 06:11:17;;;;;;;4.75;2.17;;;19.10;99.90;;;;;;5071490;28;20060;-87
2022/08/13 06:13:48;;;;;;;4.55;2.20;;;19.20;99.90;;;;;;5055707;28;20057;-86
2022/08/13 06:16:17;;;;;;;3.10;2.47;;;19.30;99.90;;;;;;5037882;28;20088;-87
2022/08/13 06:18:44;;;;;;;6.05;2.00;;;19.50;99.40;;;;;;5054303;28;20056;-87
2022/08/13 06:21:14;;;;;;;5.63;1.95;;;19.60;99.90;;;;;;5020955;28;20051;-88
2022/08/13 06:23:42;;;;;;;6.22;1.70;;;19.70;99.90;;;;;;5054685;28;20052;-88
2022/08/13 06:26:14;;;;;;;5.43;2.08;;;19.80;99.90;;;;;;5037331;28;20049;-86
2022/08/13 06:28:41;;;;;;;4.00;1.92;;;19.90;99.30;;;;;;5070976;28;20143;-86
2022/08/13 06:31:10;;;;;;;6.85;2.10;;;20.00;97.90;;;;;;5037588;28;20045;-86
2022/08/13 06:33:37;;;;;;;4.85;2.30;;;20.20;96.90;;;;;;5070780;28;20131;-86
2022/08/13 06:36:06;;;;;;;4.38;1.65;;;20.30;94.90;;;;;;5054417;28;20047;-85
2022/08/13 06:38:34;;;;;;;6.35;2.00;;;20.40;95.20;;;;;;5037706;28;20142;-86
2022/08/13 06:41:02;;;;;;;7.57;2.17;;;20.50;94.40;;;;;;5070619;28;20487;-90
2022/08/13 06:43:30;;;;;;;6.57;1.75;;;20.60;94.50;;;;;;5053764;28;20064;-85
2022/08/13 06:45:59;;;;;;;2.05;1.67;;;20.70;94.40;;;;;;5037186;28;20148;-87
2022/08/13 06:48:28;;;;;;;3.55;1.65;;;20.80;93.10;;;;;;5054368;28;20056;-86
2022/08/13 06:50:55;;;;;;;4.68;1.90;;;20.90;93.10;;;;;;5054239;28;20048;-90
2022/08/13 06:53:21;;;;;;;2.65;1.75;;;21.00;91.60;;;;;;5070803;28;20059;-88
2022/08/13 06:55:49;;;;;;;2.70;1.70;;;21.20;91.00;;;;;;5020614;28;20049;-82
2022/08/13 06:58:15;;;;;;;5.07;1.70;;;21.30;91.80;;;;;;5054791;28;20037;-81
2022/08/13 07:00:42;;;;;;;3.85;1.80;;;21.40;90.50;;;;;;5053552;28;20092;-88
2022/08/13 07:03:10;;;;;;;4.90;1.80;;;21.50;85.20;;;;;;5070210;28;20045;-83
2022/08/13 07:05:38;;;;;;;4.38;1.45;;;21.70;82.10;;;;;;5070541;28;20109;-83
2022/08/13 07:08:07;;;;;;;4.05;1.90;;;21.80;82.00;;;;;;5070470;28;20045;-82
2022/08/13 07:10:46;;;;;;;3.03;1.50;;;22.00;81.80;;;;;;5070343;28;20056;-83
2022/08/13 07:13:12;;;;;;;4.88;1.92;;;22.10;80.70;;;;;;5053334;28;20501;-83
2022/08/13 07:15:38;;;;;;;8.93;1.67;;;22.30;77.10;;;;;;5054593;28;20052;-81
2022/08/13 07:18:06;;;;;;;3.00;1.52;;;22.40;76.90;;;;;;5054514;28;20432;-83
2022/08/13 07:20:31;;;;;;;8.43;1.65;;;22.50;77.80;;;;;;5054474;28;20049;-82
2022/08/13 07:22:58;;;;;;;4.10;1.50;;;22.70;77.30;;;;;;5054579;28;20048;-82
2022/08/13 07:25:30;;;;;;;2.88;1.35;;;22.90;75.70;;;;;;5054418;28;20131;-83
2022/08/13 07:27:58;;;;;;;6.68;1.77;;;23.00;74.40;;;;;;5053792;28;20063;-82
2022/08/13 07:30:24;;;;;;;4.93;1.92;;;23.20;73.60;;;;;;5054453;28;20053;-81
2022/08/13 07:32:51;;;;;;;4.82;1.95;;;23.30;73.40;;;;;;5036583;28;20059;-82
2022/08/13 07:35:18;;;;;;;4.60;1.88;;;23.50;71.30;;;;;;5054131;28;20387;-83
2022/08/13 07:37:43;;;;;;;9.27;1.95;;;23.60;70.00;;;;;;5052718;28;20087;-83
2022/08/13 07:40:09;;;;;;;6.95;1.50;;;23.80;68.40;;;;;;5036323;28;20088;-83
2022/08/13 07:42:41;;;;;;;2.47;1.33;;;23.90;67.30;;;;;;5053755;28;20123;-83
2022/08/13 07:45:09;;;;;;;4.70;1.20;;;24.10;67.60;;;;;;5054043;28;20037;-83
2022/08/13 07:47:37;;;;;;;5.53;1.33;;;24.30;66.90;;;;;;5069451;28;20127;-82
2022/08/13 07:50:05;;;;;;;5.50;1.42;;;24.60;65.30;;;;;;5053911;28;20045;-82
2022/08/13 07:52:32;;;;;;;4.63;1.40;;;24.90;63.60;;;;;;5053838;28;20099;-84
2022/08/13 07:55:00;;;;;;;3.33;1.20;;;25.10;62.30;;;;;;5053559;28;20482;-84
2022/08/13 07:57:29;;;;;;;5.43;1.30;;;25.50;60.70;;;;;;5069186;28;20057;-82
2022/08/13 07:59:56;;;;;;;2.88;1.27;;;25.90;59.90;;;;;;5053459;28;20135;-90
2022/08/13 08:02:25;;;;;;;4.55;1.30;;;26.10;59.70;;;;;;5035821;28;20056;-82
2022/08/13 08:04:52;;;;;;;3.67;0.90;;;26.50;58.40;;;;;;5035617;28;20060;-82
2022/08/13 08:07:18;;;;;;;2.38;1.42;;;27.00;57.30;;;;;;5053514;28;20049;-82
2022/08/13 08:09:44;;;;;;;4.70;1.17;;;27.30;55.90;;;;;;5053192;28;20507;-82
2022/08/13 08:14:54;;;;;;;4.43;1.05;;;27.80;55.00;;;;;;5035744;28;20140;-82
2022/08/13 08:17:21;;;;;;;1.83;1.15;;;28.10;54.30;;;;;;5068358;28;20061;-82
2022/08/13 08:19:47;;;;;;;4.10;1.10;;;28.50;52.60;;;;;;5053067;28;20379;-82
2022/08/13 08:22:15;;;;;;;5.88;1.38;;;29.20;51.50;;;;;;5053077;28;20041;-82
2022/08/13 08:24:48;;;;;;;5.97;1.27;;;29.90;50.00;;;;;;5052080;28;20090;-82
2022/08/13 08:27:16;;;;;;;1.75;1.20;;;30.50;48.60;;;;;;5053080;28;20060;-82
2022/08/13 08:29:44;;;;;;;2.75;1.10;;;31.10;47.40;;;;;;5053069;28;20052;-84
2022/08/13 08:32:11;;;;;;;4.35;1.38;;;31.60;46.20;;;;;;5053067;28;20049;-82
2022/08/13 08:34:40;;;;;;;2.05;1.20;;;32.10;45.10;;;;;;5053051;28;20045;-82
2022/08/13 08:37:06;;;;;;;1.65;1.20;;;32.60;44.50;;;;;;5051842;28;20064;-84
2022/08/13 08:45:13;;;;;;;3.35;1.20;;;33.90;42.60;;;;;;5034431;28;20140;-83
2022/08/13 08:47:41;;;;;;;3.55;1.00;;;34.30;42.20;;;;;;5018339;28;20049;-83
2022/08/13 08:50:09;;;;;;;2.05;1.17;;;34.70;41.50;;;;;;5052560;28;20052;-83
2022/08/13 08:55:20;;;;;;;3.15;1.10;;;35.30;40.40;;;;;;5052565;28;20096;-82
2022/08/13 08:57:46;;;;;;;6.78;1.20;;;35.70;39.70;;;;;;5052315;28;20044;-82
2022/08/13 09:00:17;;;;;;;5.22;1.60;;;35.90;40.10;;;;;;5034544;28;20049;-84
2022/08/13 09:02:46;;;;;;;4.82;1.20;;;36.20;39.80;;;;;;5067952;28;20506;-83
2022/08/13 09:05:15;;;;;;;4.25;1.25;;;36.50;38.80;;;;;;5052559;28;20468;-82
2022/08/13 09:07:45;;;;;;;2.17;1.10;;;36.70;37.50;;;;;;5068191;28;20053;-82
2022/08/13 09:10:12;;;;;;;3.65;1.20;;;36.60;38.30;;;;;;5052403;28;20041;-82
2022/08/13 09:12:41;;;;;;;2.25;1.13;;;36.60;38.10;;;;;;5052112;28;20041;-82
2022/08/13 09:15:07;;;;;;;3.28;1.27;;;36.70;37.70;;;;;;5034507;28;20075;-83
2022/08/13 09:17:36;;;;;;;1.88;1.10;;;36.80;37.80;;;;;;5034541;28;20053;-83
2022/08/13 09:20:03;;;;;;;3.60;1.23;;;36.90;37.20;;;;;;5052280;28;20171;-81
2022/08/13 09:22:29;;;;;;;6.75;1.20;;;36.90;37.00;;;;;;5034265;28;20051;-82
2022/08/13 09:24:56;;;;;;;4.97;1.50;;;37.00;36.70;;;;;;5051453;28;20421;-82
2022/08/13 09:27:25;;;;;;;4.72;1.25;;;37.30;36.90;;;;;;5051937;28;20088;-82
2022/08/13 09:29:51;;;;;;;4.20;1.42;;;37.70;36.10;;;;;;5046431;28;20075;-84
2022/08/13 09:32:17;;;;;;;3.67;1.50;;;38.00;35.90;;;;;;5072187;28;20084;-80
2022/08/13 09:34:45;;;;;;;3.05;1.20;;;38.10;35.10;;;;;;5072244;28;20396;-82
2022/08/13 09:37:12;;;;;;;3.65;1.00;;;38.10;35.50;;;;;;5072189;28;20048;-82
2022/08/13 09:39:48;;;;;;;2.88;1.20;;;38.50;36.00;;;;;;5071898;28;20482;-82
2022/08/13 09:42:20;;;;;;;3.88;1.30;;;38.80;35.30;;;;;;5053928;28;20477;-81
2022/08/13 09:44:46;;;;;;;3.50;1.15;;;39.00;35.10;;;;;;5072048;28;20056;-83
2022/08/13 09:47:12;;;;;;;3.20;1.23;;;39.10;33.80;;;;;;5037073;28;20060;-83
2022/08/13 09:49:38;;;;;;;4.55;1.27;;;39.20;34.00;;;;;;5071982;28;20154;-83
2022/08/13 09:52:04;;;;;;;3.28;1.20;;;39.30;33.90;;;;;;5071868;28;20127;-82
2022/08/13 09:54:30;;;;;;;3.45;1.20;;;39.60;33.40;;;;;;5071883;28;20041;-84
2022/08/13 09:56:58;;;;;;;3.42;1.10;;;39.70;33.60;;;;;;5054021;28;20063;-83
2022/08/13 09:59:24;;;;;;;1.75;1.15;;;39.90;32.50;;;;;;5053614;28;20098;-82
2022/08/13 10:01:53;;;;;;;2.75;1.10;;;39.90;32.30;;;;;;5054201;28;20056;-83
2022/08/13 10:04:19;;;;;;;3.47;1.17;;;40.10;32.00;;;;;;5053919;28;20051;-83
2022/08/13 10:06:45;;;;;;;3.70;1.45;;;40.30;31.50;;;;;;5071873;28;20060;-83
2022/08/13 10:09:14;;;;;;;2.35;1.23;;;40.50;31.60;;;;;;5072176;28;20044;-83
2022/08/13 10:11:40;;;;;;;2.50;1.20;;;40.60;31.70;;;;;;5053681;28;20066;-82
2022/08/13 10:14:06;;;;;;;2.75;1.10;;;40.60;31.10;;;;;;5054026;28;20071;-82
2022/08/13 10:16:33;;;;;;;4.55;1.30;;;40.50;30.80;;;;;;5053293;28;20056;-83
2022/08/13 10:19:01;;;;;;;2.45;1.10;;;40.20;30.90;;;;;;5071848;28;20190;-83
2022/08/13 10:21:27;;;;;;;1.85;1.00;;;39.90;30.30;;;;;;5071637;28;20048;-83
2022/08/13 10:23:53;;;;;;;3.20;1.10;;;40.00;30.80;;;;;;5053925;28;20059;-83
2022/08/13 10:26:19;;;;;;;6.65;1.20;;;40.50;30.60;;;;;;5071491;28;20040;-83
2022/08/13 10:28:47;;;;;;;3.53;1.20;;;41.00;30.40;;;;;;5071582;28;20041;-83
2022/08/13 10:31:13;;;;;;;3.58;1.20;;;41.20;30.00;;;;;;5071662;28;20049;-83
2022/08/13 10:33:39;;;;;;;2.67;1.08;;;41.10;30.10;;;;;;5071611;28;20044;-83
2022/08/13 10:36:06;;;;;;;2.55;1.00;;;41.10;29.90;;;;;;5072064;28;20071;-82
2022/08/13 10:38:33;;;;;;;1.75;1.10;;;41.10;29.80;;;;;;5040480;28;20056;-84
2022/08/13 10:41:07;;;;;;;3.35;0.90;;;41.30;29.50;;;;;;5075023;28;20472;-83
2022/08/13 10:43:35;;;;;;;2.88;1.00;;;41.40;30.00;;;;;;5057379;28;20398;-84
2022/08/13 10:46:01;;;;;;;1.92;1.00;;;41.50;29.20;;;;;;5040604;28;20413;-83
2022/08/13 10:48:27;;;;;;;2.47;1.00;;;41.60;29.70;;;;;;5075022;28;20053;-83
2022/08/13 10:50:54;;;;;;;2.55;1.20;;;41.80;28.70;;;;;;5074988;28;20045;-82
2022/08/13 10:56:10;;;;;;;1.90;1.10;;;41.60;28.80;;;;;;5056598;28;20597;-82
2022/08/13 10:58:35;;;;;;;1.70;1.20;;;41.60;29.20;;;;;;5074684;28;20707;-85
2022/08/13 11:01:03;;;;;;;4.25;1.30;;;41.50;29.60;;;;;;5056684;28;20198;-82
2022/08/13 11:03:33;;;;;;;3.33;1.27;;;41.50;29.10;;;;;;5074880;28;20044;-83
2022/08/13 11:06:00;;;;;;;2.15;1.10;;;41.50;29.70;;;;;;5040573;28;20542;-83
2022/08/13 11:08:27;;;;;;;2.35;1.00;;;41.70;30.40;;;;;;5056780;28;20140;-82
2022/08/13 11:10:52;;;;;;;1.10;1.00;;;42.10;29.60;;;;;;5074654;28;20044;-82
2022/08/13 11:13:18;;;;;;;4.28;1.20;;;42.20;29.20;;;;;;5056929;28;20044;-82
2022/08/13 11:15:44;;;;;;;3.83;1.35;;;42.00;29.20;;;;;;5074368;28;20048;-84
2022/08/13 11:18:09;;;;;;;4.10;1.17;;;41.90;29.20;;;;;;5074369;28;20379;-83
2022/08/13 11:21:02;;;;;;;3.65;1.15;;;42.10;29.50;;;;;;5074216;28;20084;-83
2022/08/13 11:23:24;;;;;;;1.50;1.20;;;42.40;29.50;;;;;;5056443;28;20137;-82
2022/08/13 11:25:49;;;;;;;1.40;1.27;;;42.90;28.70;;;;;;5056821;28;20482;-83
2022/08/13 11:28:15;;;;;;;1.60;1.10;;;42.90;28.60;;;;;;5056589;28;20048;-84
2022/08/13 11:30:41;;;;;;;3.13;1.30;;;42.50;29.30;;;;;;5074289;28;20041;-83
2022/08/13 11:33:06;;;;;;;1.10;1.00;;;42.60;29.30;;;;;;5056284;28;20120;-82
2022/08/13 11:35:34;;;;;;;3.30;1.10;;;42.70;28.40;;;;;;5056494;28;20045;-83
2022/08/13 11:38:09;;;;;;;5.82;1.35;;;42.80;28.50;;;;;;5056268;28;20044;-83
2022/08/13 11:40:36;;;;;;;5.18;1.08;;;42.90;28.80;;;;;;5056254;28;20084;-84
2022/08/13 11:43:02;;;;;;;2.22;1.10;;;42.60;27.70;;;;;;5039520;28;20060;-84
2022/08/13 11:45:28;;;;;;;2.78;1.00;;;42.00;28.00;;;;;;5073758;28;20127;-82
2022/08/13 11:47:53;;;;;;;2.40;1.17;;;41.70;28.60;;;;;;5073511;28;20084;-83
2022/08/13 11:50:19;;;;;;;2.58;1.00;;;41.60;29.00;;;;;;5073603;28;20044;-83
2022/08/13 11:52:45;;;;;;;2.25;0.90;;;41.40;28.40;;;;;;5073605;28;20378;-82
2022/08/13 11:55:10;;;;;;;3.95;1.05;;;41.30;28.40;;;;;;5056165;28;20044;-83
2022/08/13 11:57:36;;;;;;;3.63;1.50;;;41.10;28.90;;;;;;5038864;28;20059;-82
2022/08/13 12:00:05;;;;;;;1.27;0.90;;;40.70;29.60;;;;;;5055375;28;20052;-83
2022/08/13 12:02:31;;;;;;;5.05;1.30;;;40.00;29.90;;;;;;5039050;28;20049;-83
2022/08/13 12:04:57;;;;;;;2.63;1.20;;;39.90;30.40;;;;;;5055909;28;20051;-83
2022/08/13 12:07:23;;;;;;;3.13;0.93;;;40.10;30.30;;;;;;5073212;28;20478;-83
2022/08/13 12:09:49;;;;;;;2.05;1.13;;;40.50;30.40;;;;;;5073293;28;20304;-83
2022/08/13 12:12:15;;;;;;;3.20;1.33;;;40.90;30.10;;;;;;5073504;28;20051;-83
2022/08/13 12:14:41;;;;;;;2.85;1.10;;;40.80;30.40;;;;;;5073274;28;20486;-82
2022/08/13 12:17:07;;;;;;;1.38;1.10;;;40.60;31.50;;;;;;5073203;28;20045;-84
2022/08/13 12:19:33;;;;;;;2.55;1.10;;;40.30;30.70;;;;;;5055448;28;20570;-83
2022/08/13 12:22:00;;;;;;;4.93;1.10;;;39.80;30.50;;;;;;5055048;28;20121;-82
2022/08/13 12:24:27;;;;;;;1.92;1.05;;;39.40;30.50;;;;;;5073483;28;20110;-83
2022/08/13 12:26:52;;;;;;;2.47;1.13;;;38.80;30.70;;;;;;5055331;28;20052;-84
2022/08/13 12:29:18;;;;;;;4.15;1.20;;;38.00;32.10;;;;;;5072907;28;20047;-83
2022/08/13 12:31:43;;;;;;;3.00;1.20;;;37.60;32.30;;;;;;5055427;28;20040;-83
2022/08/13 12:34:09;;;;;;;4.18;1.20;;;37.40;32.60;;;;;;5055302;28;20131;-83
2022/08/13 12:36:35;;;;;;;3.05;1.08;;;37.20;32.20;;;;;;5072695;28;20131;-84
2022/08/13 12:39:01;;;;;;;1.58;1.00;;;36.60;32.50;;;;;;5073089;28;20056;-82
2022/08/13 12:41:28;;;;;;;2.78;1.30;;;36.20;33.20;;;;;;5072636;28;20286;-87
2022/08/13 12:43:54;;;;;;;1.40;1.17;;;35.80;34.30;;;;;;5055082;28;20044;-83
2022/08/13 12:46:20;;;;;;;4.30;1.27;;;35.60;35.00;;;;;;5072636;28;20090;-83
2022/08/13 12:48:45;;;;;;;3.03;0.98;;;35.50;35.20;;;;;;5072810;28;20049;-84
2022/08/13 12:51:11;;;;;;;2.67;1.08;;;35.40;35.10;;;;;;5055094;28;20170;-83
2022/08/13 12:53:36;;;;;;;5.88;1.20;;;35.30;35.40;;;;;;5072444;28;20044;-81
2022/08/13 12:56:02;;;;;;;3.28;1.23;;;35.30;35.10;;;;;;5072633;28;20044;-83
2022/08/13 12:58:28;;;;;;;1.65;1.20;;;35.10;35.20;;;;;;5054647;28;20490;-83
2022/08/13 13:00:56;;;;;;;1.27;1.17;;;34.70;34.80;;;;;;5037007;28;20041;-83
2022/08/13 13:03:26;;;;;;;2.85;1.17;;;34.30;35.40;;;;;;5038307;28;20135;-84
2022/08/13 13:05:52;;;;;;;1.92;1.10;;;34.00;36.70;;;;;;5054805;28;20084;-84
2022/08/13 13:08:20;;;;;;;2.50;1.25;;;34.00;37.60;;;;;;5072212;28;20055;-82
2022/08/13 13:10:47;;;;;;;5.80;1.30;;;34.10;36.90;;;;;;5054915;28;20132;-83
2022/08/13 13:13:18;;;;;;;4.68;1.23;;;34.00;36.20;;;;;;5053871;28;20122;-83
2022/08/13 13:15:44;;;;;;;4.10;1.20;;;33.90;37.10;;;;;;5054568;28;20113;-83
2022/08/13 13:18:18;;;;;;;2.45;1.30;;;33.80;36.20;;;;;;5072342;28;20127;-82